Time;durP1;ratioP1;P1;durP2;ratioP2;P2;SDS_P1;SDS_P2;PMS_P1;PMS_P2;Temp;Humidity;BMP_temperature;BMP_pressure;BME280_temperature;BME280_humidity;BME280_pressure;Samples;Min_cycle;Max_cycle;Signal;HPM_P1;HPM_P2
2021/08/30 00:00:15;;;;;;;9.53;6.20;;;;;;;12.61;100.00;95669.03;1043880;28;20025;-68
2021/08/30 00:00:45;;;;;;;9.30;6.43;;;;;;;12.60;100.00;95672.81;1039853;28;20025;-68
2021/08/30 00:01:16;;;;;;;8.67;6.53;;;;;;;12.61;100.00;95671.72;1039951;28;20359;-68
2021/08/30 00:01:46;;;;;;;10.13;6.70;;;;;;;12.62;100.00;95672.53;1044020;28;20036;-68
2021/08/30 00:02:17;;;;;;;9.33;6.33;;;;;;;12.63;100.00;95671.44;1039862;28;20037;-68
2021/08/30 00:02:47;;;;;;;10.03;6.87;;;;;;;12.64;100.00;95671.16;1039846;28;20441;-68
2021/08/30 00:03:17;;;;;;;11.33;7.03;;;;;;;12.61;100.00;95669.03;1039893;28;20479;-68
2021/08/30 00:03:48;;;;;;;9.00;6.53;;;;;;;12.61;100.00;95673.63;1039923;28;20470;-68
2021/08/30 00:04:19;;;;;;;9.67;6.67;;;;;;;12.62;100.00;95673.31;1043983;28;20470;-68
2021/08/30 00:04:49;;;;;;;9.87;6.77;;;;;;;12.59;100.00;95673.91;1039911;28;20401;-69
2021/08/30 00:05:19;;;;;;;11.57;6.50;;;;;;;12.59;100.00;95665.03;1039097;28;20076;-68
2021/08/30 00:05:50;;;;;;;10.50;6.67;;;;;;;12.62;100.00;95672.53;1039806;28;20044;-68
2021/08/30 00:06:20;;;;;;;9.77;6.47;;;;;;;12.60;100.00;95666.66;1039878;28;20025;-68
2021/08/30 00:06:51;;;;;;;10.17;6.60;;;;;;;12.59;100.00;95665.88;1039869;28;20401;-69
2021/08/30 00:07:21;;;;;;;11.13;6.50;;;;;;;12.60;100.00;95670.13;1039806;28;20048;-68
2021/08/30 00:07:51;;;;;;;10.63;7.33;;;;;;;12.57;100.00;95669.91;1039865;28;20029;-68
2021/08/30 00:08:22;;;;;;;11.43;7.17;;;;;;;12.61;100.00;95670.94;1039867;28;20025;-68
2021/08/30 00:08:52;;;;;;;10.77;7.17;;;;;;;12.63;100.00;95664.19;1039969;28;20026;-68
2021/08/30 00:09:23;;;;;;;9.33;6.83;;;;;;;12.63;100.00;95669.53;1035798;28;20478;-68
2021/08/30 00:09:53;;;;;;;10.13;6.87;;;;;;;12.64;100.00;95670.34;1035800;28;20029;-68
2021/08/30 00:10:24;;;;;;;12.07;7.23;;;;;;;12.65;100.00;95663.91;1035527;28;20037;-68
2021/08/30 00:10:54;;;;;;;11.80;7.40;;;;;;;12.61;100.00;95665.56;1039605;28;20029;-68
2021/08/30 00:11:24;;;;;;;12.47;7.20;;;;;;;12.62;100.00;95672.53;1039653;28;20033;-68
2021/08/30 00:11:55;;;;;;;9.60;6.10;;;;;;;12.61;100.00;95660.22;1039541;28;20029;-68
2021/08/30 00:12:25;;;;;;;12.57;7.57;;;;;;;12.61;100.00;95663.69;1035502;28;20033;-68
2021/08/30 00:12:56;;;;;;;12.67;7.13;;;;;;;12.62;100.00;95664.47;1035694;28;20081;-68
2021/08/30 00:13:26;;;;;;;10.77;7.30;;;;;;;12.60;100.00;95659.41;1031573;28;20033;-69
2021/08/30 00:13:57;;;;;;;11.67;7.33;;;;;;;12.61;100.00;95665.56;1031664;28;20102;-69
2021/08/30 00:14:27;;;;;;;12.20;7.60;;;;;;;12.59;100.00;95659.69;1033923;28;20104;-69
2021/08/30 00:14:57;;;;;;;10.47;7.10;;;;;;;12.61;100.00;95668.25;1033522;28;20049;-69
2021/08/30 00:15:28;;;;;;;10.93;7.43;;;;;;;12.61;100.00;95668.25;1044029;28;20040;-69
2021/08/30 00:15:58;;;;;;;13.13;8.03;;;;;;;12.60;100.00;95667.47;1043627;28;20067;-69
2021/08/30 00:16:29;;;;;;;11.80;7.67;;;;;;;12.62;100.00;95659.91;1039644;28;20052;-69
2021/08/30 00:16:59;;;;;;;11.43;7.67;;;;;;;12.61;100.00;95655.63;1035405;28;20022;-69
2021/08/30 00:17:30;;;;;;;9.20;7.27;;;;;;;12.63;100.00;95660.69;1035723;28;20029;-69
2021/08/30 00:18:00;;;;;;;10.23;7.07;;;;;;;12.61;100.00;95660.22;1035749;28;20066;-70
2021/08/30 00:18:31;;;;;;;11.23;7.30;;;;;;;12.63;100.00;95655.34;1039680;28;20028;-69
2021/08/30 00:19:01;;;;;;;12.67;7.60;;;;;;;12.64;100.00;95657.75;1035713;28;20018;-69
2021/08/30 00:19:34;;;;;;;17.10;8.23;;;;;;;12.63;100.00;95656.13;1035619;28;20113;-69
2021/08/30 00:20:07;;;;;;;12.13;7.47;;;;;;;12.62;100.00;95669.84;1035333;28;20030;-69
2021/08/30 00:20:37;;;;;;;11.45;7.55;;;;;;;12.63;100.00;95653.44;1036318;28;20537;-69
2021/08/30 00:21:08;;;;;;;12.10;7.70;;;;;;;12.65;100.00;95658.53;1039650;28;20120;-69
2021/08/30 00:21:38;;;;;;;11.07;7.47;;;;;;;12.64;100.00;95660.44;1035602;28;20026;-69
2021/08/30 00:22:08;;;;;;;9.43;6.90;;;;;;;12.64;100.00;95659.59;1035669;28;20014;-69
2021/08/30 00:22:39;;;;;;;9.90;6.23;;;;;;;12.62;100.00;95659.13;1035557;28;20066;-69
2021/08/30 00:23:09;;;;;;;12.37;7.77;;;;;;;12.62;100.00;95661.78;1035588;28;20026;-69
2021/08/30 00:23:40;;;;;;;11.50;7.40;;;;;;;12.64;100.00;95657.75;1035684;28;20030;-69
2021/08/30 00:24:10;;;;;;;10.30;7.07;;;;;;;12.65;100.00;95653.19;1035646;28;20021;-69
2021/08/30 00:24:40;;;;;;;11.67;7.00;;;;;;;12.62;100.00;95654.53;1031307;28;20447;-69
2021/08/30 00:25:11;;;;;;;10.30;6.70;;;;;;;12.59;100.00;95649.78;1039259;28;20502;-69
2021/08/30 00:25:42;;;;;;;9.73;7.17;;;;;;;12.60;100.00;95655.94;1039773;28;20033;-69
2021/08/30 00:26:12;;;;;;;10.97;7.13;;;;;;;12.63;100.00;95655.34;1043689;28;20043;-69
2021/08/30 00:26:42;;;;;;;9.20;6.53;;;;;;;12.63;100.00;95658.03;1039929;28;20033;-69
2021/08/30 00:27:13;;;;;;;10.20;6.47;;;;;;;12.64;100.00;95651.56;1039507;28;20065;-69
2021/08/30 00:27:43;;;;;;;9.60;6.80;;;;;;;12.64;100.00;95657.75;1039735;28;20414;-69
2021/08/30 00:28:14;;;;;;;10.53;6.40;;;;;;;12.67;100.00;95648.31;1035525;28;20018;-69
2021/08/30 00:28:44;;;;;;;12.30;7.37;;;;;;;12.66;100.00;95650.22;1035596;28;20018;-69
2021/08/30 00:29:14;;;;;;;11.27;6.90;;;;;;;12.67;100.00;95662.53;1039594;28;20013;-69
2021/08/30 00:29:45;;;;;;;9.50;6.93;;;;;;;12.67;100.00;95659.84;1039696;28;20022;-69
2021/08/30 00:30:15;;;;;;;9.43;6.87;;;;;;;12.68;100.00;95652.59;1039594;28;20379;-69
2021/08/30 00:30:46;;;;;;;8.50;6.20;;;;;;;12.70;100.00;95653.13;1035393;28;20430;-69
2021/08/30 00:31:16;;;;;;;9.93;6.77;;;;;;;12.67;100.00;95653.69;1035664;28;20026;-69
2021/08/30 00:31:47;;;;;;;10.20;6.77;;;;;;;12.67;100.00;95654.47;1035451;28;20432;-69
2021/08/30 00:32:17;;;;;;;9.20;6.40;;;;;;;12.65;100.00;95650.50;1039677;28;20413;-68
2021/08/30 00:32:47;;;;;;;9.93;6.37;;;;;;;12.66;100.00;95654.78;1039889;28;20075;-69
2021/08/30 00:33:18;;;;;;;9.53;6.50;;;;;;;12.65;100.00;95653.19;1039591;28;20153;-68
2021/08/30 00:33:48;;;;;;;8.27;6.10;;;;;;;12.63;100.00;95652.66;1039549;28;20083;-69
2021/08/30 00:34:19;;;;;;;8.60;6.70;;;;;;;12.60;100.00;95648.69;1039599;28;20025;-69
2021/08/30 00:34:49;;;;;;;9.50;6.53;;;;;;;12.61;100.00;95652.16;1039877;28;20056;-69
2021/08/30 00:35:20;;;;;;;10.03;6.83;;;;;;;12.58;100.00;95652.75;1044020;28;20029;-68
2021/08/30 00:35:50;;;;;;;9.50;6.90;;;;;;;12.58;100.00;95656.22;1044106;28;20401;-69
2021/08/30 00:36:22;;;;;;;9.23;6.30;;;;;;;12.62;100.00;95651.06;1039551;28;20025;-69
2021/08/30 00:36:53;;;;;;;11.18;7.05;;;;;;;12.56;100.00;95650.34;1039714;28;20524;-69
2021/08/30 00:37:23;;;;;;;9.50;6.43;;;;;;;12.59;100.00;95646.28;1039562;28;20032;-69
2021/08/30 00:37:54;;;;;;;10.57;7.13;;;;;;;12.59;100.00;95651.66;1036191;28;20022;-69
2021/08/30 00:38:25;;;;;;;8.87;6.27;;;;;;;12.60;100.00;95642.53;1043670;28;20017;-69
2021/08/30 00:38:55;;;;;;;8.52;6.53;;;;;;;12.60;100.00;95651.38;1043895;28;20029;-69
2021/08/30 00:39:26;;;;;;;8.87;6.67;;;;;;;12.59;100.00;95652.47;1039615;28;20025;-68
2021/08/30 00:39:56;;;;;;;9.07;6.50;;;;;;;12.58;100.00;95640.13;1039714;28;20486;-68
2021/08/30 00:40:26;;;;;;;8.63;6.97;;;;;;;12.59;100.00;95646.28;1035368;28;20557;-69
2021/08/30 00:40:57;;;;;;;10.17;7.03;;;;;;;12.57;100.00;95645.78;1035600;28;20132;-69
2021/08/30 00:41:27;;;;;;;9.50;6.80;;;;;;;12.55;100.00;95651.44;1031569;28;20379;-69
2021/08/30 00:41:58;;;;;;;10.43;6.50;;;;;;;12.58;100.00;95650.06;1039667;28;20458;-69
2021/08/30 00:42:28;;;;;;;9.17;6.30;;;;;;;12.59;100.00;95640.91;1043841;28;20335;-69
2021/08/30 00:43:00;;;;;;;9.90;7.10;;;;;;;12.53;100.00;95650.91;1043701;28;20035;-69
2021/08/30 00:43:30;;;;;;;9.65;7.10;;;;;;;12.54;100.00;95644.50;1043458;28;20052;-69
2021/08/30 00:44:01;;;;;;;9.87;6.93;;;;;;;12.55;100.00;95640.72;1043724;28;20025;-69
2021/08/30 00:44:31;;;;;;;9.93;6.70;;;;;;;12.57;100.00;95637.75;1043983;28;20025;-69
2021/08/30 00:45:04;;;;;;;10.40;6.80;;;;;;;12.57;100.00;95641.22;1043924;28;20024;-69
2021/08/30 00:45:35;;;;;;;8.68;6.10;;;;;;;12.59;100.00;95639.06;1044666;28;20016;-69
2021/08/30 00:46:05;;;;;;;9.63;7.00;;;;;;;12.54;100.00;95646.34;1044798;28;20025;-70
2021/08/30 00:46:35;;;;;;;8.87;6.73;;;;;;;12.55;100.00;95645.28;1044415;28;20016;-69
2021/08/30 00:47:06;;;;;;;9.63;6.77;;;;;;;12.55;100.00;95638.03;1044625;28;20028;-68
2021/08/30 00:47:38;;;;;;;11.00;7.00;;;;;;;12.56;100.00;95636.16;1036216;28;20028;-69
2021/08/30 00:48:08;;;;;;;8.80;6.60;;;;;;;12.58;100.00;95640.13;1036583;28;20077;-69
2021/08/30 00:48:38;;;;;;;10.93;6.40;;;;;;;12.59;100.00;95640.91;1040420;28;20076;-69
2021/08/30 00:49:09;;;;;;;8.00;6.27;;;;;;;12.56;100.00;95636.16;1040753;28;20030;-69
2021/08/30 00:49:40;;;;;;;14.50;7.37;;;;;;;12.59;100.00;95638.25;1044741;28;20025;-69
2021/08/30 00:50:12;;;;;;;9.90;6.67;;;;;;;12.58;100.00;95631.28;1040419;28;20025;-69
2021/08/30 00:50:42;;;;;;;10.02;6.53;;;;;;;12.59;100.00;95638.25;1036124;28;20792;-69
2021/08/30 00:51:14;;;;;;;10.60;7.33;;;;;;;12.58;100.00;95636.66;1032219;28;20031;-69
2021/08/30 00:51:45;;;;;;;10.48;6.85;;;;;;;12.58;100.00;95642.00;1033240;28;20049;-69
2021/08/30 00:52:15;;;;;;;10.53;6.60;;;;;;;12.58;100.00;95648.16;1036645;28;20026;-69
2021/08/30 00:52:46;;;;;;;10.37;6.20;;;;;;;12.56;100.00;95644.19;1040777;28;20022;-69
2021/08/30 00:53:16;;;;;;;7.80;5.93;;;;;;;12.56;100.00;95636.16;1040604;28;20360;-69
2021/08/30 00:53:47;;;;;;;9.60;6.63;;;;;;;12.55;100.00;95637.25;1040572;28;20068;-69
2021/08/30 00:54:17;;;;;;;8.63;6.27;;;;;;;12.56;100.00;95652.25;1044738;28;20068;-69
2021/08/30 00:54:47;;;;;;;10.53;6.50;;;;;;;12.58;100.00;95645.50;1040169;28;20072;-69
2021/08/30 00:55:18;;;;;;;9.23;6.23;;;;;;;12.57;100.00;95641.22;1036437;28;20040;-69
2021/08/30 00:55:48;;;;;;;10.50;6.90;;;;;;;12.58;100.00;95642.00;1032292;28;20535;-69
2021/08/30 00:56:19;;;;;;;9.17;6.20;;;;;;;12.55;100.00;95640.72;1036452;28;20050;-69
2021/08/30 00:56:49;;;;;;;10.30;6.10;;;;;;;12.54;100.00;95638.31;1032526;28;20025;-69
2021/08/30 00:57:20;;;;;;;10.20;6.80;;;;;;;12.55;100.00;95637.25;1036563;28;20025;-69
2021/08/30 00:57:50;;;;;;;7.87;6.03;;;;;;;12.56;100.00;95642.31;1040483;28;20467;-69
2021/08/30 00:58:21;;;;;;;8.37;6.10;;;;;;;12.59;100.00;95640.91;1040418;28;20496;-69
2021/08/30 00:58:51;;;;;;;7.73;6.30;;;;;;;12.54;100.00;95643.69;1040824;28;20025;-69
2021/08/30 00:59:21;;;;;;;8.20;5.97;;;;;;;12.54;100.00;95635.63;1040843;28;20021;-69
2021/08/30 00:59:52;;;;;;;7.23;6.00;;;;;;;12.56;100.00;95646.88;1040774;28;20092;-69
2021/08/30 01:00:22;;;;;;;11.43;6.90;;;;;;;12.51;100.00;95644.28;1044572;28;20462;-69
2021/08/30 01:00:53;;;;;;;8.73;6.47;;;;;;;12.54;100.00;95644.50;1044651;28;20473;-69
2021/08/30 01:01:23;;;;;;;8.97;6.87;;;;;;;12.51;100.00;95637.03;1044640;28;20104;-69
2021/08/30 01:01:54;;;;;;;8.60;6.30;;;;;;;12.55;100.00;95642.63;1040471;28;20404;-69
2021/08/30 01:02:24;;;;;;;9.27;6.60;;;;;;;12.56;100.00;95649.56;1040532;28;20438;-69
2021/08/30 01:02:54;;;;;;;8.43;6.17;;;;;;;12.58;100.00;95647.38;1036279;28;20022;-69
2021/08/30 01:03:25;;;;;;;8.80;6.20;;;;;;;12.53;100.00;95637.53;1032465;28;20022;-69
2021/08/30 01:03:55;;;;;;;13.50;6.97;;;;;;;12.54;100.00;95644.50;1036509;28;20033;-69
2021/08/30 01:04:26;;;;;;;7.87;5.83;;;;;;;12.52;100.00;95635.13;1036396;28;20070;-68
2021/08/30 01:04:56;;;;;;;8.77;6.47;;;;;;;12.52;100.00;95645.84;1036743;28;20041;-69
2021/08/30 01:05:26;;;;;;;10.33;6.47;;;;;;;12.54;100.00;95643.69;1036453;28;20041;-69
2021/08/30 01:06:02;;;;;;;8.67;5.97;;;;;;;12.52;100.00;95648.53;1036434;28;20133;-68
2021/08/30 01:06:46;;;;;;;8.90;6.50;;;;;;;12.52;100.00;95641.28;1040484;28;20383;-69
2021/08/30 01:07:39;;;;;;;9.18;6.40;;;;;;;12.51;100.00;95642.38;1036327;28;20018;-69
2021/08/30 01:08:30;;;;;;;12.88;6.35;;;;;;;12.48;100.00;95645.63;1032575;28;20487;-69
2021/08/30 01:09:29;;;;;;;9.10;6.40;;;;;;;12.51;100.00;95637.03;1031926;28;20026;-69
2021/08/30 01:10:02;;;;;;;9.75;6.32;;;;;;;12.51;100.00;95638.91;1031512;28;20034;-69
2021/08/30 01:10:55;;;;;;;9.70;6.55;;;;;;;12.55;100.00;95646.09;1031842;28;20495;-69
2021/08/30 01:11:25;;;;;;;8.23;6.20;;;;;;;12.52;100.00;95643.19;1036404;28;20450;-69
2021/08/30 01:12:20;;;;;;;9.77;6.50;;;;;;;12.49;100.00;95640.00;1031991;28;20022;-69
2021/08/30 01:12:56;;;;;;;8.52;6.45;;;;;;;12.52;100.00;95643.19;1033065;28;20487;-69
2021/08/30 01:13:34;;;;;;;9.30;6.22;;;;;;;12.51;100.00;95638.91;1028373;28;20038;-71
2021/08/30 01:14:06;;;;;;;10.02;7.15;;;;;;;12.51;100.00;95637.03;1028243;28;20419;-69
2021/08/30 01:15:04;;;;;;;10.82;6.78;;;;;;;12.52;100.00;95640.50;1028293;28;20035;-69
2021/08/30 01:15:40;;;;;;;8.95;6.55;;;;;;;12.49;100.00;95642.69;1027904;28;20130;-69
2021/08/30 01:16:12;;;;;;;8.60;6.70;;;;;;;12.49;100.00;95634.66;1036280;28;20010;-69
2021/08/30 01:16:42;;;;;;;9.23;6.78;;;;;;;12.52;100.00;95640.50;1032129;28;20022;-69
2021/08/30 01:17:14;;;;;;;9.47;7.60;;;;;;;12.49;100.00;95637.31;1029335;28;20015;-69
2021/08/30 01:17:44;;;;;;;10.43;7.22;;;;;;;12.52;100.00;95637.81;1025144;28;20023;-69
2021/08/30 01:18:18;;;;;;;10.40;7.57;;;;;;;12.52;100.00;95635.13;1024658;28;20473;-69
2021/08/30 01:18:49;;;;;;;11.32;7.82;;;;;;;12.54;100.00;95638.31;1024929;28;20026;-69
2021/08/30 01:19:24;;;;;;;9.35;7.40;;;;;;;12.51;100.00;95637.03;1025061;28;20066;-69
2021/08/30 01:20:09;;;;;;;10.63;7.47;;;;;;;12.49;100.00;95637.31;1028210;28;20037;-69
2021/08/30 01:20:45;;;;;;;9.90;7.40;;;;;;;12.50;100.00;95635.44;1031302;28;20038;-69
2021/08/30 01:21:29;;;;;;;11.15;7.85;;;;;;;12.50;100.00;95638.13;1039545;28;20017;-69
2021/08/30 01:21:59;;;;;;;10.18;7.50;;;;;;;12.49;100.00;95633.84;1040310;28;20061;-69
2021/08/30 01:22:30;;;;;;;11.10;8.03;;;;;;;12.48;100.00;95632.22;1039001;28;20022;-69
2021/08/30 01:23:00;;;;;;;10.75;7.43;;;;;;;12.49;100.00;95629.28;1032253;28;20018;-69
2021/08/30 01:23:31;;;;;;;9.87;7.73;;;;;;;12.47;100.00;95631.44;1032363;28;20025;-70
2021/08/30 01:24:04;;;;;;;10.83;7.80;;;;;;;12.51;100.00;95638.91;1036156;28;20320;-69
2021/08/30 01:24:34;;;;;;;12.50;7.90;;;;;;;12.48;100.00;95627.66;1037125;28;20018;-69
2021/08/30 01:25:05;;;;;;;11.23;7.33;;;;;;;12.51;100.00;95638.91;1040411;28;20022;-69
2021/08/30 01:25:36;;;;;;;9.97;7.40;;;;;;;12.51;100.00;95633.56;1040301;28;20044;-69
2021/08/30 01:26:07;;;;;;;12.23;7.70;;;;;;;12.46;100.00;95635.22;1036523;28;20030;-69
2021/08/30 01:26:40;;;;;;;13.68;7.03;;;;;;;12.44;100.00;95628.56;1040798;28;20021;-69
2021/08/30 01:27:10;;;;;;;11.68;7.53;;;;;;;12.42;100.00;95636.88;1040342;28;20052;-69
2021/08/30 01:27:42;;;;;;;15.23;7.60;;;;;;;12.44;100.00;95633.94;1039826;28;20025;-69
2021/08/30 01:28:12;;;;;;;11.05;7.20;;;;;;;12.41;100.00;95629.94;1033060;28;20444;-69
2021/08/30 01:28:53;;;;;;;10.53;7.63;;;;;;;12.42;100.00;95628.84;1028594;28;20079;-69
2021/08/30 01:29:42;;;;;;;11.68;7.80;;;;;;;12.41;100.00;95629.13;1032096;28;20408;-69
2021/08/30 01:30:15;;;;;;;9.48;7.10;;;;;;;12.43;100.00;95635.78;1031954;28;20037;-69
2021/08/30 01:30:45;;;;;;;12.10;6.70;;;;;;;12.41;100.00;95629.94;1029642;28;20054;-69
2021/08/30 01:31:22;;;;;;;8.97;6.80;;;;;;;12.40;100.00;95638.25;1035000;28;20418;-69
2021/08/30 01:31:57;;;;;;;9.07;7.10;;;;;;;12.39;100.00;95632.09;1036052;28;20529;-69
2021/08/30 01:32:33;;;;;;;11.35;7.53;;;;;;;12.42;100.00;95626.16;1038018;28;20113;-69
2021/08/30 01:33:04;;;;;;;10.32;7.45;;;;;;;12.41;100.00;95629.13;1040421;28;20075;-69
2021/08/30 01:33:34;;;;;;;13.40;7.80;;;;;;;12.40;100.00;95622.97;1036313;28;20096;-69
2021/08/30 01:34:05;;;;;;;11.03;7.70;;;;;;;12.41;100.00;95629.94;1028977;28;20500;-69
2021/08/30 01:34:35;;;;;;;10.87;7.33;;;;;;;12.42;100.00;95626.16;1028257;28;20019;-69
2021/08/30 01:35:08;;;;;;;9.97;7.27;;;;;;;12.41;100.00;95624.56;1024221;29;20035;-69
2021/08/30 01:35:38;;;;;;;7.60;6.53;;;;;;;12.39;100.00;95624.06;1024552;28;20118;-69
2021/08/30 01:36:09;;;;;;;8.73;6.90;;;;;;;12.36;100.00;95627.31;1024440;28;20040;-69
2021/08/30 01:36:39;;;;;;;8.43;6.33;;;;;;;12.38;100.00;95622.44;1028973;28;20057;-69
2021/08/30 01:37:10;;;;;;;11.47;6.80;;;;;;;12.38;100.00;95629.69;1028269;28;20122;-68
2021/08/30 01:37:41;;;;;;;10.93;7.67;;;;;;;12.41;100.00;95623.78;1028123;28;20023;-69
2021/08/30 01:38:11;;;;;;;9.57;6.90;;;;;;;12.41;100.00;95624.56;1032159;28;20483;-70
2021/08/30 01:38:45;;;;;;;11.03;6.80;;;;;;;12.37;100.00;95625.44;1032536;28;20038;-70
2021/08/30 01:39:16;;;;;;;8.35;6.35;;;;;;;12.36;100.00;95615.81;1036224;28;20470;-70
2021/08/30 01:39:46;;;;;;;10.03;6.47;;;;;;;12.37;100.00;95625.44;1032654;28;20023;-69
2021/08/30 01:40:18;;;;;;;8.77;6.30;;;;;;;12.38;100.00;95630.50;1032156;28;20049;-70
2021/08/30 01:40:48;;;;;;;8.77;6.53;;;;;;;12.35;100.00;95616.91;1029387;28;20488;-69
2021/08/30 01:41:19;;;;;;;9.60;6.50;;;;;;;12.37;100.00;95628.91;1032191;28;20037;-69
2021/08/30 01:41:49;;;;;;;8.37;6.13;;;;;;;12.36;100.00;95630.00;1028114;28;20038;-70
2021/08/30 01:42:20;;;;;;;10.30;6.50;;;;;;;12.37;100.00;95628.91;1024190;29;20034;-68
2021/08/30 01:42:52;;;;;;;9.47;6.47;;;;;;;12.39;100.00;95625.97;1020139;29;20141;-67
2021/08/30 01:43:22;;;;;;;9.25;6.70;;;;;;;12.37;100.00;95620.06;1028016;28;20026;-69
2021/08/30 01:43:53;;;;;;;9.83;6.40;;;;;;;12.36;100.00;95618.47;1028153;28;20582;-69
2021/08/30 01:44:24;;;;;;;9.07;6.70;;;;;;;12.38;100.00;95618.97;1032500;28;20018;-69
2021/08/30 01:44:56;;;;;;;10.52;6.88;;;;;;;12.37;100.00;95623.53;1028400;28;20041;-70
2021/08/30 01:45:29;;;;;;;10.25;6.45;;;;;;;12.39;100.00;95621.38;1028049;28;20027;-70
2021/08/30 01:45:59;;;;;;;8.63;6.20;;;;;;;12.38;100.00;95627.03;1027941;28;20022;-69
2021/08/30 01:46:30;;;;;;;9.63;5.77;;;;;;;12.39;100.00;95621.38;1032219;28;20039;-70
2021/08/30 01:47:00;;;;;;;9.93;6.03;;;;;;;12.37;100.00;95618.19;1036123;28;20087;-69
2021/08/30 01:47:31;;;;;;;8.00;5.90;;;;;;;12.37;100.00;95622.75;1040208;28;20026;-69
2021/08/30 01:48:03;;;;;;;9.13;5.93;;;;;;;12.38;100.00;95624.34;1029420;28;20044;-69
2021/08/30 01:48:33;;;;;;;8.35;6.13;;;;;;;12.38;100.00;95622.44;1025123;28;20039;-69
2021/08/30 01:49:05;;;;;;;8.67;6.27;;;;;;;12.37;100.00;95623.53;1028353;28;20031;-69
2021/08/30 01:49:36;;;;;;;10.27;6.63;;;;;;;12.35;100.00;95623.06;1028628;28;20026;-69
2021/08/30 01:50:07;;;;;;;9.03;6.27;;;;;;;12.36;100.00;95619.28;1024561;28;20035;-69
2021/08/30 01:50:38;;;;;;;9.73;5.90;;;;;;;12.36;100.00;95619.28;1019999;29;20111;-69
2021/08/30 01:51:09;;;;;;;13.10;6.75;;;;;;;12.35;100.00;95619.56;1020675;28;20058;-69
2021/08/30 01:51:39;;;;;;;9.47;5.97;;;;;;;12.37;100.00;95618.19;1028753;28;20038;-69
2021/08/30 01:52:10;;;;;;;9.50;6.23;;;;;;;12.36;100.00;95627.31;1032729;28;20018;-69
2021/08/30 01:52:40;;;;;;;7.97;6.40;;;;;;;12.38;100.00;95621.66;1040360;28;20108;-69
2021/08/30 01:53:11;;;;;;;10.73;6.30;;;;;;;12.39;100.00;95618.72;1040324;28;20033;-69
2021/08/30 01:53:41;;;;;;;8.43;6.30;;;;;;;12.39;100.00;95620.59;1036210;28;20033;-69
2021/08/30 01:54:12;;;;;;;10.27;6.80;;;;;;;12.40;100.00;95625.66;1036162;28;20022;-69
2021/08/30 01:54:43;;;;;;;9.47;6.73;;;;;;;12.39;100.00;95621.38;1032230;28;20089;-69
2021/08/30 01:55:36;;;;;;;9.88;7.18;;;;;;;12.41;100.00;95624.56;1028500;28;20027;-69
2021/08/30 01:56:07;;;;;;;11.25;7.20;;;;;;;12.39;100.00;95621.38;1028047;28;20491;-69
2021/08/30 01:56:39;;;;;;;9.88;7.03;;;;;;;12.37;100.00;95626.22;1027147;28;20038;-69
2021/08/30 01:57:12;;;;;;;9.88;6.82;;;;;;;12.36;100.00;95630.00;1030948;28;20030;-69
2021/08/30 02:00:45;;;;;;;9.45;7.07;;;;;;;12.38;100.00;95621.66;1033067;28;20030;-69
2021/08/30 02:01:16;;;;;;;11.30;7.38;;;;;;;12.39;100.00;95623.28;1032060;28;20456;-69
2021/08/30 02:01:46;;;;;;;11.27;7.13;;;;;;;12.37;100.00;95618.19;1031583;28;20034;-69
2021/08/30 02:02:17;;;;;;;12.00;7.27;;;;;;;12.39;100.00;95617.91;1031821;28;20019;-69
2021/08/30 02:02:47;;;;;;;9.53;6.93;;;;;;;12.41;100.00;95616.53;1032205;28;20042;-69
2021/08/30 02:03:21;;;;;;;10.93;6.90;;;;;;;12.40;100.00;95617.63;1032303;28;20475;-69
2021/08/30 02:03:52;;;;;;;8.57;6.90;;;;;;;12.42;100.00;95623.47;1040469;28;20517;-69
2021/08/30 02:04:22;;;;;;;9.50;6.57;;;;;;;12.43;100.00;95616.22;1044330;28;20021;-69
2021/08/30 02:04:52;;;;;;;10.80;7.13;;;;;;;12.40;100.00;95620.28;1044406;28;20040;-69
2021/08/30 02:05:23;;;;;;;12.17;7.43;;;;;;;12.37;100.00;95615.50;1040167;28;20017;-69
2021/08/30 02:05:57;;;;;;;10.37;7.37;;;;;;;12.40;100.00;95612.25;1040329;28;20030;-69
2021/08/30 02:06:27;;;;;;;8.77;6.38;;;;;;;12.41;100.00;95613.84;1043917;28;20029;-69
2021/08/30 02:06:58;;;;;;;11.73;7.40;;;;;;;12.43;100.00;95617.03;1040760;28;20451;-69
2021/08/30 02:07:29;;;;;;;9.50;7.20;;;;;;;12.43;100.00;95617.03;1040336;28;20481;-69
2021/08/30 02:07:59;;;;;;;10.65;8.00;;;;;;;12.43;100.00;95616.22;1040303;28;20035;-69
2021/08/30 02:08:31;;;;;;;10.20;7.20;;;;;;;12.40;100.00;95606.91;1040434;28;20036;-69
2021/08/30 02:09:01;;;;;;;9.93;7.10;;;;;;;12.42;100.00;95617.31;1040268;28;20025;-69
2021/08/30 02:09:32;;;;;;;10.07;7.20;;;;;;;12.43;100.00;95610.88;1040225;28;20033;-69
2021/08/30 02:10:03;;;;;;;11.27;7.73;;;;;;;12.40;100.00;95611.47;1040351;28;20032;-69
2021/08/30 02:10:33;;;;;;;10.40;7.20;;;;;;;12.40;100.00;95611.47;1036431;28;20026;-69
2021/08/30 02:11:05;;;;;;;11.40;7.77;;;;;;;12.38;100.00;95614.41;1044341;28;20025;-69
2021/08/30 02:11:36;;;;;;;12.82;7.25;;;;;;;12.36;100.00;95607.78;1044417;28;20017;-69
2021/08/30 02:12:06;;;;;;;8.70;6.50;;;;;;;12.38;100.00;95614.41;1040456;28;20037;-69
2021/08/30 02:12:37;;;;;;;8.70;6.43;;;;;;;12.37;100.00;95609.34;1040236;28;20017;-69
2021/08/30 02:13:07;;;;;;;9.93;6.60;;;;;;;12.37;100.00;95612.81;1040232;28;20020;-69
2021/08/30 02:13:37;;;;;;;9.13;6.67;;;;;;;12.36;100.00;95611.25;1040308;28;20013;-69
2021/08/30 02:14:08;;;;;;;10.97;7.40;;;;;;;12.39;100.00;95616.03;1044392;28;20032;-69
2021/08/30 02:14:38;;;;;;;11.97;7.07;;;;;;;12.37;100.00;95610.16;1044528;28;20378;-69
2021/08/30 02:15:09;;;;;;;10.77;7.27;;;;;;;12.36;100.00;95610.44;1044423;28;20009;-69
2021/08/30 02:15:40;;;;;;;12.57;7.38;;;;;;;12.40;100.00;95606.91;1040232;28;20524;-69
2021/08/30 02:16:11;;;;;;;9.07;6.55;;;;;;;12.41;100.00;95608.47;1031839;28;20360;-69
2021/08/30 02:16:41;;;;;;;9.13;6.70;;;;;;;12.42;100.00;95603.91;1032092;28;20033;-69
2021/08/30 02:17:20;;;;;;;16.57;7.60;;;;;;;12.41;100.00;95605.81;1032348;28;20029;-69
2021/08/30 02:17:53;;;;;;;10.00;6.90;;;;;;;12.43;100.00;95610.88;1030445;28;20022;-69
2021/08/30 02:18:34;;;;;;;9.48;6.72;;;;;;;12.43;100.00;95600.16;1032121;28;20028;-69
2021/08/30 02:19:28;;;;;;;10.88;6.90;;;;;;;12.41;100.00;95599.66;1028104;28;20031;-69
2021/08/30 02:20:02;;;;;;;9.95;6.75;;;;;;;12.41;100.00;95597.75;1028609;28;20184;-69
2021/08/30 02:20:33;;;;;;;11.55;7.00;;;;;;;12.39;100.00;95605.31;1028084;28;20066;-68
2021/08/30 02:21:28;;;;;;;9.53;7.30;;;;;;;12.35;100.00;95598.13;1032021;28;20038;-68
2021/08/30 02:22:11;;;;;;;8.40;6.60;;;;;;;12.36;100.00;95597.03;1027781;28;20407;-68
2021/08/30 02:22:42;;;;;;;10.05;6.63;;;;;;;12.38;100.00;95600.22;1029065;28;20031;-68
2021/08/30 02:23:13;;;;;;;9.45;6.90;;;;;;;12.36;100.00;95597.84;1027990;28;20034;-68
2021/08/30 02:24:17;;;;;;;8.40;6.03;;;;;;;12.35;100.00;95593.56;1029828;28;20508;-68
2021/08/30 02:24:50;;;;;;;11.38;7.18;;;;;;;12.37;100.00;95599.44;1032522;28;20042;-69
2021/08/30 02:25:21;;;;;;;9.88;6.68;;;;;;;12.37;100.00;95598.63;1028861;28;20039;-68
2021/08/30 02:25:51;;;;;;;10.40;6.80;;;;;;;12.37;100.00;95599.44;1032102;28;20034;-68
2021/08/30 02:26:24;;;;;;;9.47;6.80;;;;;;;12.39;100.00;95599.16;1028120;28;20037;-68
2021/08/30 02:27:02;;;;;;;10.02;6.38;;;;;;;12.40;100.00;95596.19;1028065;28;20074;-68
2021/08/30 02:27:55;;;;;;;9.40;6.70;;;;;;;12.37;100.00;95599.44;1030819;28;20039;-68
2021/08/30 02:28:25;;;;;;;8.75;6.72;;;;;;;12.37;100.00;95591.38;1043882;28;20033;-68
2021/08/30 02:28:56;;;;;;;9.57;6.77;;;;;;;12.38;100.00;95592.97;1040171;28;20456;-68
2021/08/30 02:29:28;;;;;;;10.43;7.30;;;;;;;12.40;100.00;95603.44;1042714;28;20418;-68
2021/08/30 02:30:03;;;;;;;12.52;6.82;;;;;;;12.37;100.00;95595.94;1035993;28;20022;-68
2021/08/30 02:30:36;;;;;;;9.57;6.90;;;;;;;12.36;100.00;95592.47;1036021;28;20185;-68
2021/08/30 02:31:07;;;;;;;10.32;7.03;;;;;;;12.38;100.00;95589.50;1027920;28;20019;-68
2021/08/30 02:31:38;;;;;;;10.85;6.70;;;;;;;12.34;100.00;95592.00;1029042;28;20069;-68
2021/08/30 02:32:08;;;;;;;9.13;6.40;;;;;;;12.34;100.00;95599.22;1024043;29;20034;-68
2021/08/30 02:32:39;;;;;;;11.13;6.80;;;;;;;12.36;100.00;95597.84;1028137;28;20027;-68